Time;durP1;ratioP1;P1;durP2;ratioP2;P2;SDS_P1;SDS_P2;PMS_P1;PMS_P2;Temp;Humidity;BMP_temperature;BMP_pressure;BME280_temperature;BME280_humidity;BME280_pressure;Samples;Min_cycle;Max_cycle;Signal;HPM_P1;HPM_P2
2022/04/23 00:00:23;;;;;;;;;;;11.20;99.90;;;;;;5038566;28;19931;-82
2022/04/23 00:02:50;;;;;;;;;;;11.10;99.90;;;;;;5033236;28;19932;-82
2022/04/23 00:05:16;;;;;;;;;;;11.10;99.90;;;;;;5033832;28;19928;-82
2022/04/23 00:07:43;;;;;;;;;;;11.10;99.90;;;;;;5042139;28;19925;-82
2022/04/23 00:10:10;;;;;;;;;;;11.10;99.90;;;;;;5066676;28;19924;-82
2022/04/23 00:12:37;;;;;;;;;;;11.10;99.90;;;;;;5043939;28;19925;-86
2022/04/23 00:15:06;;;;;;;;;;;11.10;99.90;;;;;;5035208;28;19924;-81
2022/04/23 00:17:33;;;;;;;;;;;11.10;99.90;;;;;;5050135;28;19933;-82
2022/04/23 00:20:00;;;;;;;;;;;11.20;99.90;;;;;;5049455;28;19924;-82
2022/04/23 00:22:27;;;;;;;;;;;11.10;99.90;;;;;;5035186;28;19924;-83
2022/04/23 00:24:54;;;;;;;;;;;11.10;99.90;;;;;;5030579;28;19933;-81
2022/04/23 00:27:20;;;;;;;;;;;11.10;99.90;;;;;;5053292;28;19928;-81
2022/04/23 00:29:47;;;;;;;;;;;11.00;99.90;;;;;;5052877;28;20318;-82
2022/04/23 00:32:13;;;;;;;;;;;10.90;99.90;;;;;;5050965;28;20375;-82
2022/04/23 00:34:40;;;;;;;;;;;10.90;99.90;;;;;;5039847;28;19932;-82
2022/04/23 00:37:06;;;;;;;;;;;10.90;99.90;;;;;;5040338;28;19972;-82
2022/04/23 00:39:33;;;;;;;;;;;10.80;99.90;;;;;;5033111;28;19929;-81
2022/04/23 00:42:01;;;;;;;;;;;10.70;99.90;;;;;;5048353;28;20272;-81
2022/04/23 00:44:28;;;;;;;;;;;10.70;99.90;;;;;;5038851;28;19964;-82
2022/04/23 00:46:54;;;;;;;;;;;10.70;99.90;;;;;;5037876;28;19932;-81
2022/04/23 00:49:21;;;;;;;;;;;10.60;99.90;;;;;;5043206;28;19936;-82
2022/04/23 00:51:47;;;;;;;;;;;10.60;99.90;;;;;;5044425;28;19932;-81
2022/04/23 00:54:14;;;;;;;;;;;10.40;99.90;;;;;;5042265;28;19929;-80
2022/04/23 00:56:40;;;;;;;;;;;10.30;99.90;;;;;;5029205;28;19932;-81
2022/04/23 00:59:08;;;;;;;;;;;10.30;99.90;;;;;;5047094;28;19925;-81
2022/04/23 01:01:35;;;;;;;;;;;10.30;99.90;;;;;;5053712;28;20015;-81
2022/04/23 01:04:02;;;;;;;;;;;10.20;99.90;;;;;;5038868;28;19924;-81
2022/04/23 01:06:28;;;;;;;;;;;10.20;99.90;;;;;;5040242;28;20372;-82
2022/04/23 01:08:58;;;;;;;;;;;10.00;99.90;;;;;;5033275;28;19925;-81
2022/04/23 01:11:25;;;;;;;;;;;10.10;99.90;;;;;;5022877;28;20018;-81
2022/04/23 01:13:51;;;;;;;;;;;10.10;99.90;;;;;;5050529;28;19925;-82
2022/04/23 01:16:19;;;;;;;;;;;10.00;99.90;;;;;;5039761;28;19947;-81
2022/04/23 01:18:45;;;;;;;;;;;9.90;99.90;;;;;;5030777;28;19931;-81
2022/04/23 01:21:13;;;;;;;;;;;9.90;99.90;;;;;;5043069;28;19924;-81
2022/04/23 01:23:40;;;;;;;;;;;9.90;99.90;;;;;;5052205;28;19971;-87
2022/04/23 01:26:07;;;;;;;;;;;9.90;99.90;;;;;;5043830;28;19935;-83
2022/04/23 01:28:33;;;;;;;;;;;9.90;99.90;;;;;;5047863;28;19925;-81
2022/04/23 01:31:00;;;;;;;;;;;9.90;99.90;;;;;;5036974;28;19921;-81
2022/04/23 01:33:27;;;;;;;;;;;9.80;99.90;;;;;;5044290;28;19928;-82
2022/04/23 01:35:53;;;;;;;;;;;9.90;99.90;;;;;;5036058;28;19987;-81
2022/04/23 01:38:20;;;;;;;;;;;9.80;99.90;;;;;;5020670;28;19929;-81
2022/04/23 01:40:47;;;;;;;;;;;9.80;99.90;;;;;;5020753;28;19933;-81
2022/04/23 01:43:13;;;;;;;;;;;9.80;99.90;;;;;;5006605;28;19972;-81
2022/04/23 01:45:40;;;;;;;;;;;9.90;99.90;;;;;;5029600;28;19925;-86
2022/04/23 01:48:06;;;;;;;;;;;9.90;99.90;;;;;;5011220;28;19936;-81
2022/04/23 01:50:34;;;;;;;;;;;9.80;99.90;;;;;;5029998;28;19925;-82
2022/04/23 01:53:01;;;;;;;;;;;9.70;99.90;;;;;;5009790;28;19926;-81
2022/04/23 01:55:28;;;;;;;;;;;9.80;99.90;;;;;;5012410;28;19925;-82
2022/04/23 01:57:54;;;;;;;;;;;9.70;99.90;;;;;;5004645;28;20384;-82
2022/04/23 02:00:21;;;;;;;;;;;9.70;99.90;;;;;;5030919;28;19937;-81
2022/04/23 02:02:47;;;;;;;;;;;9.70;99.90;;;;;;5005052;28;19936;-82
2022/04/23 02:05:14;;;;;;;;;;;9.60;99.90;;;;;;5022638;28;19933;-82
2022/04/23 02:07:40;;;;;;;;;;;9.60;99.90;;;;;;5002445;28;20270;-81
2022/04/23 02:10:07;;;;;;;;;;;9.60;99.90;;;;;;5023696;28;19929;-81
2022/04/23 02:12:33;;;;;;;;;;;9.60;99.90;;;;;;4996477;28;19926;-85
2022/04/23 02:15:00;;;;;;;;;;;9.60;99.90;;;;;;4997185;28;19929;-81
2022/04/23 02:17:27;;;;;;;;;;;9.60;99.90;;;;;;5020354;28;19944;-82
2022/04/23 02:19:54;;;;;;;;;;;9.60;99.90;;;;;;5006286;28;19932;-82
2022/04/23 02:22:20;;;;;;;;;;;9.60;99.90;;;;;;5020736;28;19937;-82
2022/04/23 02:24:47;;;;;;;;;;;9.60;99.90;;;;;;5005477;28;19929;-83
2022/04/23 02:27:13;;;;;;;;;;;9.50;99.90;;;;;;5010423;28;19926;-82
2022/04/23 02:29:40;;;;;;;;;;;9.40;99.90;;;;;;5022265;28;19956;-82
2022/04/23 02:32:06;;;;;;;;;;;9.40;99.90;;;;;;5020289;28;19956;-82
2022/04/23 02:34:34;;;;;;;;;;;9.40;99.90;;;;;;5023082;28;19931;-83
2022/04/23 02:37:00;;;;;;;;;;;9.40;99.90;;;;;;5021740;28;19929;-83
2022/04/23 02:39:27;;;;;;;;;;;9.30;99.90;;;;;;5018055;28;20296;-83
2022/04/23 02:41:53;;;;;;;;;;;9.30;99.90;;;;;;5024092;28;19936;-82
2022/04/23 02:44:20;;;;;;;;;;;9.40;99.90;;;;;;5008226;28;19925;-82
2022/04/23 02:46:46;;;;;;;;;;;9.40;99.90;;;;;;5027455;28;19929;-87
2022/04/23 02:49:13;;;;;;;;;;;9.40;99.90;;;;;;5007460;28;19960;-83
2022/04/23 02:51:42;;;;;;;;;;;9.40;99.90;;;;;;5016616;28;19931;-83
2022/04/23 02:54:08;;;;;;;;;;;9.30;99.90;;;;;;5009520;28;19930;-82
2022/04/23 02:56:35;;;;;;;;;;;9.30;99.90;;;;;;5013089;28;19932;-82
2022/04/23 02:59:02;;;;;;;;;;;9.30;99.90;;;;;;5022133;28;19926;-83
2022/04/23 03:01:29;;;;;;;;;;;9.20;99.90;;;;;;5006984;28;19925;-81
2022/04/23 03:03:58;;;;;;;;;;;9.20;99.90;;;;;;5018492;28;19932;-82
2022/04/23 03:06:28;;;;;;;;;;;9.20;99.90;;;;;;5011857;28;19979;-82
2022/04/23 03:08:55;;;;;;;;;;;9.10;99.90;;;;;;5018987;28;19968;-83
2022/04/23 03:11:21;;;;;;;;;;;9.10;99.90;;;;;;5020687;28;19929;-82
2022/04/23 03:13:48;;;;;;;;;;;9.00;99.90;;;;;;5016571;28;19933;-87
2022/04/23 03:16:15;;;;;;;;;;;9.00;99.90;;;;;;5000495;28;19933;-83
2022/04/23 03:18:41;;;;;;;;;;;9.00;99.90;;;;;;5015328;28;19925;-83
2022/04/23 03:21:08;;;;;;;;;;;9.00;99.90;;;;;;4996338;28;19926;-82
2022/04/23 03:23:34;;;;;;;;;;;9.10;99.90;;;;;;5000069;28;19929;-83
2022/04/23 03:26:01;;;;;;;;;;;9.00;99.90;;;;;;5011327;28;19926;-83
2022/04/23 03:28:28;;;;;;;;;;;8.90;99.90;;;;;;5025946;28;19929;-81
2022/04/23 03:30:55;;;;;;;;;;;8.90;99.90;;;;;;5014791;28;19930;-83
2022/04/23 03:33:22;;;;;;;;;;;8.90;99.90;;;;;;5024987;28;20016;-83
2022/04/23 03:35:48;;;;;;;;;;;8.80;99.90;;;;;;5012921;28;19933;-82
2022/04/23 03:38:16;;;;;;;;;;;8.80;99.90;;;;;;5043572;28;19925;-82
2022/04/23 03:40:43;;;;;;;;;;;8.80;99.90;;;;;;5055564;28;19924;-82
2022/04/23 03:43:10;;;;;;;;;;;8.90;99.90;;;;;;5034746;28;19925;-82
2022/04/23 03:45:37;;;;;;;;;;;8.90;99.90;;;;;;5038319;28;19925;-83
2022/04/23 03:48:04;;;;;;;;;;;8.80;99.90;;;;;;5048033;28;19970;-82
2022/04/23 03:50:31;;;;;;;;;;;8.80;99.90;;;;;;5048835;28;20470;-83
2022/04/23 03:52:58;;;;;;;;;;;8.80;99.90;;;;;;5052819;28;19924;-82
2022/04/23 03:55:25;;;;;;;;;;;8.80;99.90;;;;;;5039882;28;20271;-85
2022/04/23 03:57:52;;;;;;;;;;;8.80;99.90;;;;;;5066561;28;19978;-88
2022/04/23 04:00:20;;;;;;;;;;;8.80;99.90;;;;;;5036243;28;20329;-81
2022/04/23 04:02:46;;;;;;;;;;;8.80;99.90;;;;;;5050536;28;20260;-83
2022/04/23 04:05:13;;;;;;;;;;;8.70;99.90;;;;;;5041601;28;20376;-81
2022/04/23 04:07:39;;;;;;;;;;;8.60;99.90;;;;;;5034337;28;19933;-83
2022/04/23 04:10:06;;;;;;;;;;;8.60;99.90;;;;;;5054479;28;19986;-82
2022/04/23 04:12:32;;;;;;;;;;;8.60;99.90;;;;;;5050961;28;19931;-83
2022/04/23 04:14:59;;;;;;;;;;;8.50;99.90;;;;;;5041016;28;19981;-82
2022/04/23 04:17:26;;;;;;;;;;;8.50;99.90;;;;;;5050664;28;19931;-82
2022/04/23 04:19:53;;;;;;;;;;;8.50;99.90;;;;;;5037633;28;19983;-85
2022/04/23 04:22:21;;;;;;;;;;;8.40;99.90;;;;;;5042938;28;19925;-85
2022/04/23 04:24:47;;;;;;;;;;;8.40;99.90;;;;;;5042004;28;19974;-87
2022/04/23 04:27:14;;;;;;;;;;;8.30;99.90;;;;;;5033208;28;19991;-82
2022/04/23 04:29:40;;;;;;;;;;;8.30;99.90;;;;;;5022714;28;19929;-81
2022/04/23 04:32:07;;;;;;;;;;;8.30;99.90;;;;;;5029572;28;19925;-81
2022/04/23 04:34:34;;;;;;;;;;;8.40;99.90;;;;;;5032359;28;19925;-82
2022/04/23 04:37:00;;;;;;;;;;;8.60;99.90;;;;;;5032447;28;20281;-84
2022/04/23 04:39:27;;;;;;;;;;;8.60;99.90;;;;;;5047524;28;19924;-82
2022/04/23 04:41:54;;;;;;;;;;;8.80;99.90;;;;;;5051729;28;19936;-80
2022/04/23 04:44:20;;;;;;;;;;;8.80;99.90;;;;;;5043014;28;19928;-82
2022/04/23 04:46:47;;;;;;;;;;;8.80;99.90;;;;;;5051681;28;19924;-80
2022/04/23 04:49:13;;;;;;;;;;;8.80;99.90;;;;;;5052152;28;19940;-82
2022/04/23 04:51:40;;;;;;;;;;;8.80;99.90;;;;;;5029076;28;22009;-81
2022/04/23 04:54:06;;;;;;;;;;;8.80;99.90;;;;;;5026486;28;19925;-81
2022/04/23 04:56:33;;;;;;;;;;;8.90;99.90;;;;;;5047166;28;19931;-82
2022/04/23 04:58:59;;;;;;;;;;;8.90;99.90;;;;;;5027853;28;19935;-83
2022/04/23 05:01:26;;;;;;;;;;;9.00;99.90;;;;;;5038967;28;19948;-82
2022/04/23 05:03:53;;;;;;;;;;;9.00;99.90;;;;;;5040631;28;19925;-82
2022/04/23 05:06:20;;;;;;;;;;;9.00;99.90;;;;;;5028402;28;19925;-82
2022/04/23 05:08:46;;;;;;;;;;;8.90;99.90;;;;;;5026575;28;19929;-80
2022/04/23 05:11:13;;;;;;;;;;;9.00;99.90;;;;;;5044342;28;19925;-81
2022/04/23 05:13:39;;;;;;;;;;;9.00;99.90;;;;;;5034961;28;19932;-82
2022/04/23 05:16:06;;;;;;;;;;;9.20;99.90;;;;;;5033110;28;19924;-82
2022/04/23 05:18:33;;;;;;;;;;;9.30;99.90;;;;;;5051839;28;19925;-82
2022/04/23 05:20:59;;;;;;;;;;;9.30;99.90;;;;;;5040284;28;19924;-87
2022/04/23 05:23:26;;;;;;;;;;;9.40;99.90;;;;;;5047779;28;19925;-82
2022/04/23 05:25:52;;;;;;;;;;;9.40;99.90;;;;;;5045838;28;19970;-82
2022/04/23 05:28:19;;;;;;;;;;;9.40;99.90;;;;;;5042066;28;20375;-82
2022/04/23 05:30:45;;;;;;;;;;;9.50;99.90;;;;;;5038572;28;19933;-81
2022/04/23 05:33:12;;;;;;;;;;;9.50;99.90;;;;;;5051524;28;19926;-81
2022/04/23 05:35:38;;;;;;;;;;;9.60;99.90;;;;;;5047951;28;19928;-81
2022/04/23 05:38:05;;;;;;;;;;;9.60;99.90;;;;;;5044699;28;19925;-77
2022/04/23 05:40:32;;;;;;;;;;;9.80;99.90;;;;;;5053589;28;19951;-83
2022/04/23 05:42:58;;;;;;;;;;;9.90;99.90;;;;;;5031985;28;20304;-81
2022/04/23 05:45:25;;;;;;;;;;;10.10;99.90;;;;;;5046929;28;19929;-79
2022/04/23 05:47:51;;;;;;;;;;;10.20;99.90;;;;;;5041289;28;19944;-81
2022/04/23 05:50:18;;;;;;;;;;;10.30;99.90;;;;;;5038491;28;19947;-82
2022/04/23 05:52:45;;;;;;;;;;;10.30;99.90;;;;;;5024157;28;19932;-81
2022/04/23 05:55:11;;;;;;;;;;;10.30;99.90;;;;;;5028881;28;20338;-82
2022/04/23 05:57:38;;;;;;;;;;;10.50;99.90;;;;;;5041316;28;19925;-81
2022/04/23 06:00:04;;;;;;;;;;;10.60;99.90;;;;;;5026222;28;19925;-85
2022/04/23 06:02:31;;;;;;;;;;;10.60;99.90;;;;;;5024026;28;19929;-79
2022/04/23 06:04:58;;;;;;;;;;;10.60;99.90;;;;;;5025420;28;19936;-81
2022/04/23 06:07:24;;;;;;;;;;;10.80;99.90;;;;;;5023561;28;20782;-81
2022/04/23 06:09:51;;;;;;;;;;;10.90;99.90;;;;;;5049285;28;20364;-80
2022/04/23 06:12:17;;;;;;;;;;;10.90;99.90;;;;;;5021714;28;19932;-80
2022/04/23 06:14:44;;;;;;;;;;;10.80;99.90;;;;;;5030116;28;19940;-80
2022/04/23 06:17:11;;;;;;;;;;;10.90;99.90;;;;;;5021262;28;19928;-80
2022/04/23 06:19:38;;;;;;;;;;;10.90;99.90;;;;;;5021592;28;19931;-81
2022/04/23 06:22:04;;;;;;;;;;;11.00;99.90;;;;;;5025803;28;19933;-85
2022/04/23 06:24:31;;;;;;;;;;;11.10;99.90;;;;;;5028183;28;19932;-81
2022/04/23 06:26:58;;;;;;;;;;;11.20;99.90;;;;;;5020016;28;19932;-80
2022/04/23 06:29:24;;;;;;;;;;;11.20;99.90;;;;;;5025753;28;19937;-83
2022/04/23 06:31:51;;;;;;;;;;;11.30;99.90;;;;;;5026833;28;19924;-81
2022/04/23 06:34:17;;;;;;;;;;;11.30;99.90;;;;;;5027099;28;19975;-80
2022/04/23 06:36:44;;;;;;;;;;;11.40;99.90;;;;;;5040103;28;19925;-80
2022/04/23 06:39:11;;;;;;;;;;;11.50;99.90;;;;;;5037653;28;19936;-80
2022/04/23 06:41:37;;;;;;;;;;;11.50;99.90;;;;;;5022957;28;19925;-80
2022/04/23 06:44:04;;;;;;;;;;;11.50;99.90;;;;;;5024130;28;19925;-79
2022/04/23 06:46:30;;;;;;;;;;;11.70;99.90;;;;;;5025258;28;19931;-80
2022/04/23 06:48:59;;;;;;;;;;;11.80;99.90;;;;;;5025616;28;19925;-81
2022/04/23 06:51:26;;;;;;;;;;;11.90;99.90;;;;;;5040195;28;20091;-81
2022/04/23 06:53:53;;;;;;;;;;;11.90;99.90;;;;;;5029364;28;20368;-81
2022/04/23 06:56:19;;;;;;;;;;;11.90;99.90;;;;;;5040370;28;20450;-81
2022/04/23 06:58:46;;;;;;;;;;;12.00;99.90;;;;;;5019805;28;20380;-81
2022/04/23 07:01:12;;;;;;;;;;;12.10;99.90;;;;;;5015836;28;19925;-81
2022/04/23 07:03:39;;;;;;;;;;;12.20;99.90;;;;;;5033265;28;19936;-81
2022/04/23 07:06:05;;;;;;;;;;;12.10;99.90;;;;;;5024077;28;20300;-85
2022/04/23 07:08:32;;;;;;;;;;;12.20;99.90;;;;;;5027250;28;19928;-81
2022/04/23 07:10:59;;;;;;;;;;;12.30;99.90;;;;;;5026562;28;20383;-81
2022/04/23 07:13:26;;;;;;;;;;;12.50;99.90;;;;;;5038872;28;19980;-82
2022/04/23 07:15:52;;;;;;;;;;;12.50;99.90;;;;;;5025177;28;19975;-85
2022/04/23 07:18:19;;;;;;;;;;;12.60;99.90;;;;;;5044215;28;19924;-81
2022/04/23 07:20:45;;;;;;;;;;;12.50;99.90;;;;;;5027948;28;19925;-81
2022/04/23 07:25:56;;;;;;;;;;;12.60;99.90;;;;;;5024407;28;19925;-80
2022/04/23 07:28:23;;;;;;;;;;;12.60;99.90;;;;;;5048085;28;20372;-82
2022/04/23 07:30:50;;;;;;;;;;;12.70;99.90;;;;;;5041398;28;19932;-82
2022/04/23 07:38:41;;;;;;;;;;;12.90;99.90;;;;;;5025354;28;20028;-81
2022/04/23 07:41:08;;;;;;;;;;;12.90;99.90;;;;;;5022021;28;19932;-83
2022/04/23 07:43:35;;;;;;;;;;;13.00;99.90;;;;;;5019165;28;19925;-81
2022/04/23 07:46:01;;;;;;;;;;;13.10;99.90;;;;;;5029128;28;19933;-81
2022/04/23 07:48:28;;;;;;;;;;;13.20;99.90;;;;;;5026054;28;20408;-81
2022/04/23 07:50:54;;;;;;;;;;;13.30;99.90;;;;;;5028821;28;19936;-81
2022/04/23 07:53:23;;;;;;;;;;;13.40;99.90;;;;;;5018784;28;19979;-81
2022/04/23 07:55:50;;;;;;;;;;;13.50;99.90;;;;;;5029119;28;20386;-80
2022/04/23 07:58:17;;;;;;;;;;;13.50;99.90;;;;;;5026976;28;19939;-82
2022/04/23 08:00:44;;;;;;;;;;;13.80;99.90;;;;;;5028632;28;19933;-82
2022/04/23 08:03:10;;;;;;;;;;;13.80;99.50;;;;;;5020515;28;20411;-86
2022/04/23 08:05:37;;;;;;;;;;;14.00;99.80;;;;;;5021441;28;20291;-82
2022/04/23 08:08:04;;;;;;;;;;;14.10;98.50;;;;;;5018708;28;19925;-80
2022/04/23 08:10:30;;;;;;;;;;;14.20;99.00;;;;;;5024398;28;19925;-81
2022/04/23 08:12:57;;;;;;;;;;;14.10;99.20;;;;;;5023132;28;20372;-82
2022/04/23 08:15:26;;;;;;;;;;;14.30;99.10;;;;;;5026862;28;19951;-82
2022/04/23 08:17:52;;;;;;;;;;;14.30;98.30;;;;;;5023544;28;19925;-82
2022/04/23 08:20:19;;;;;;;;;;;14.20;98.50;;;;;;5060342;28;19924;-75
2022/04/23 08:22:46;;;;;;;;;;;14.20;98.20;;;;;;5042676;28;19929;-77
2022/04/23 08:25:12;;;;;;;;;;;14.20;98.50;;;;;;5028989;28;19940;-84
2022/04/23 08:27:39;;;;;;;;;;;14.30;98.80;;;;;;5047354;28;19925;-77
2022/04/23 08:32:49;;;;;;;;;;;14.30;98.50;;;;;;5040335;28;19936;-79
2022/04/23 08:35:16;;;;;;;;;;;14.30;97.70;;;;;;5022044;28;20288;-78
2022/04/23 08:37:43;;;;;;;;;;;14.30;97.10;;;;;;5045201;28;20288;-82
2022/04/23 08:40:10;;;;;;;;;;;14.30;96.70;;;;;;5051923;28;19925;-82
2022/04/23 08:42:38;;;;;;;;;;;14.40;97.20;;;;;;5029210;28;19972;-83
2022/04/23 08:45:07;;;;;;;;;;;14.60;97.10;;;;;;5032304;28;19925;-82
2022/04/23 08:47:33;;;;;;;;;;;14.50;97.10;;;;;;5020004;28;20514;-83
2022/04/23 08:50:00;;;;;;;;;;;14.60;97.20;;;;;;5028549;28;20403;-84
2022/04/23 08:52:26;;;;;;;;;;;14.50;96.10;;;;;;5035705;28;20392;-84
2022/04/23 08:54:53;;;;;;;;;;;14.40;95.50;;;;;;5037223;28;19964;-83
2022/04/23 08:57:20;;;;;;;;;;;14.50;96.00;;;;;;5031220;28;20395;-83
2022/04/23 08:59:51;;;;;;;;;;;14.60;95.10;;;;;;5051599;28;19924;-83
2022/04/23 09:02:18;;;;;;;;;;;14.70;94.40;;;;;;5029829;28;19924;-83
2022/04/23 09:04:44;;;;;;;;;;;14.60;95.10;;;;;;5022970;28;19940;-84
2022/04/23 09:07:11;;;;;;;;;;;14.70;95.60;;;;;;5044267;28;19951;-83
2022/04/23 09:09:38;;;;;;;;;;;14.70;95.20;;;;;;5052090;28;19928;-84
2022/04/23 09:12:04;;;;;;;;;;;14.50;94.00;;;;;;5028978;28;19940;-84
2022/04/23 09:14:31;;;;;;;;;;;14.60;93.10;;;;;;5035978;28;20364;-84
2022/04/23 09:25:11;;;;;;;;;;;14.70;91.40;;;;;;5027248;28;19932;-84
2022/04/23 09:27:37;;;;;;;;;;;14.70;90.80;;;;;;5031131;28;19925;-84
2022/04/23 09:30:04;;;;;;;;;;;14.60;90.90;;;;;;5043048;28;19983;-85
2022/04/23 09:32:30;;;;;;;;;;;14.80;90.20;;;;;;5031061;28;19925;-84
2022/04/23 09:34:57;;;;;;;;;;;14.60;89.70;;;;;;5039977;28;19928;-84
2022/04/23 09:37:24;;;;;;;;;;;14.80;90.40;;;;;;5015912;28;19929;-84
2022/04/23 09:39:50;;;;;;;;;;;15.00;89.90;;;;;;5035330;28;19936;-83
2022/04/23 09:42:17;;;;;;;;;;;15.10;89.90;;;;;;5015456;28;20013;-88
2022/04/23 09:44:44;;;;;;;;;;;15.10;89.30;;;;;;5037773;28;19929;-84
2022/04/23 09:47:10;;;;;;;;;;;15.20;88.80;;;;;;5037785;28;19935;-84
2022/04/23 09:49:38;;;;;;;;;;;15.30;86.60;;;;;;5022524;28;19929;-84
2022/04/23 09:52:05;;;;;;;;;;;15.30;85.00;;;;;;5034156;28;19928;-84
2022/04/23 09:54:32;;;;;;;;;;;15.40;82.90;;;;;;5029535;28;19929;-84
2022/04/23 09:56:59;;;;;;;;;;;15.40;81.10;;;;;;5022589;28;20011;-84
2022/04/23 09:59:26;;;;;;;;;;;15.30;78.90;;;;;;5041737;28;19929;-85
2022/04/23 10:01:53;;;;;;;;;;;15.40;77.70;;;;;;5039476;28;19932;-84
2022/04/23 10:04:19;;;;;;;;;;;15.50;80.80;;;;;;5026998;28;19929;-89
2022/04/23 10:06:46;;;;;;;;;;;15.40;78.30;;;;;;5038993;28;19929;-85
2022/04/23 10:09:12;;;;;;;;;;;15.60;80.80;;;;;;5021636;28;20439;-85
2022/04/23 10:11:39;;;;;;;;;;;15.50;77.60;;;;;;5041205;28;19928;-83
2022/04/23 10:14:06;;;;;;;;;;;15.60;79.00;;;;;;5049957;28;19924;-76
2022/04/23 10:16:33;;;;;;;;;;;15.50;77.90;;;;;;5051822;28;19928;-75
2022/04/23 10:18:59;;;;;;;;;;;15.40;78.20;;;;;;5030854;28;19925;-75
2022/04/23 10:21:26;;;;;;;;;;;15.60;78.70;;;;;;5059866;28;19924;-76
2022/04/23 10:23:53;;;;;;;;;;;15.60;74.10;;;;;;5047734;28;20002;-78
2022/04/23 10:26:20;;;;;;;;;;;15.60;74.40;;;;;;5024795;28;20277;-82
2022/04/23 10:28:47;;;;;;;;;;;15.50;74.20;;;;;;5029898;28;19932;-78
2022/04/23 10:31:15;;;;;;;;;;;15.70;77.10;;;;;;5044639;28;20034;-77
2022/04/23 10:33:42;;;;;;;;;;;15.80;78.00;;;;;;5038198;28;20643;-77
2022/04/23 10:36:10;;;;;;;;;;;15.70;71.80;;;;;;5031034;28;20366;-76
2022/04/23 10:38:38;;;;;;;;;;;15.70;72.70;;;;;;5043851;28;19929;-77
2022/04/23 10:41:05;;;;;;;;;;;15.70;73.10;;;;;;5028264;28;20442;-80
2022/04/23 10:43:31;;;;;;;;;;;15.80;73.20;;;;;;5045084;28;19947;-78
2022/04/23 10:45:59;;;;;;;;;;;15.70;71.90;;;;;;5024802;28;19932;-78
2022/04/23 10:48:25;;;;;;;;;;;15.70;75.80;;;;;;5025718;28;20026;-83
2022/04/23 10:50:52;;;;;;;;;;;15.80;72.90;;;;;;5023632;28;19987;-78
2022/04/23 10:53:18;;;;;;;;;;;15.60;73.70;;;;;;5046874;28;20280;-78
2022/04/23 10:55:45;;;;;;;;;;;15.80;73.80;;;;;;5025512;28;20299;-78
2022/04/23 10:58:12;;;;;;;;;;;15.80;73.00;;;;;;5035711;28;19929;-78
2022/04/23 11:00:40;;;;;;;;;;;15.90;74.60;;;;;;5041204;28;19925;-78
2022/04/23 11:03:07;;;;;;;;;;;16.00;71.00;;;;;;5020934;28;19968;-78
2022/04/23 11:13:57;;;;;;;;;;;16.00;72.10;;;;;;4978514;28;19990;-79
2022/04/23 11:16:24;;;;;;;;;;;16.10;72.00;;;;;;5031161;28;19928;-89
2022/04/23 11:18:50;;;;;;;;;;;16.20;69.30;;;;;;5029846;28;19929;-76
2022/04/23 11:21:17;;;;;;;;;;;16.10;70.00;;;;;;5047732;28;19933;-76
2022/04/23 11:23:45;;;;;;;;;;;16.10;69.50;;;;;;5032681;28;19925;-77
2022/04/23 11:26:12;;;;;;;;;;;16.10;67.10;;;;;;5036603;28;20007;-78
2022/04/23 11:28:39;;;;;;;;;;;16.20;68.90;;;;;;5025902;28;19925;-81
2022/04/23 11:31:06;;;;;;;;;;;16.30;69.20;;;;;;5038749;28;19956;-79
2022/04/23 11:33:32;;;;;;;;;;;16.30;67.70;;;;;;5029136;28;19933;-79
2022/04/23 11:36:00;;;;;;;;;;;16.20;68.00;;;;;;5018208;28;19938;-79
2022/04/23 11:38:27;;;;;;;;;;;16.40;67.60;;;;;;5033311;28;19929;-82
2022/04/23 11:40:53;;;;;;;;;;;16.30;66.80;;;;;;5023352;28;20024;-78
2022/04/23 11:43:20;;;;;;;;;;;16.40;66.60;;;;;;5029151;28;20002;-79
2022/04/23 11:45:47;;;;;;;;;;;16.30;66.40;;;;;;5033066;28;20046;-81
2022/04/23 11:48:13;;;;;;;;;;;16.30;66.60;;;;;;5021959;28;19932;-80
2022/04/23 11:50:40;;;;;;;;;;;16.30;66.10;;;;;;5054122;28;19936;-80
2022/04/23 11:53:09;;;;;;;;;;;16.30;69.30;;;;;;5039412;28;20384;-80
2022/04/23 11:55:35;;;;;;;;;;;16.40;65.30;;;;;;5027404;28;20009;-80
2022/04/23 11:58:02;;;;;;;;;;;16.50;64.20;;;;;;5022922;28;19929;-79
2022/04/23 12:00:28;;;;;;;;;;;16.50;65.50;;;;;;5040723;28;19932;-85
2022/04/23 12:02:56;;;;;;;;;;;16.50;66.30;;;;;;5031613;28;19925;-79
2022/04/23 12:05:23;;;;;;;;;;;16.50;65.60;;;;;;5019506;28;19933;-80
2022/04/23 12:07:49;;;;;;;;;;;16.60;64.90;;;;;;5046803;28;20016;-81
2022/04/23 12:10:16;;;;;;;;;;;16.60;64.50;;;;;;5043970;28;19944;-80
2022/04/23 12:12:42;;;;;;;;;;;16.60;63.10;;;;;;5051125;28;19962;-80
2022/04/23 12:15:09;;;;;;;;;;;16.60;64.70;;;;;;5030707;28;20288;-79
2022/04/23 12:17:35;;;;;;;;;;;16.50;64.00;;;;;;5056700;28;19977;-82
2022/04/23 12:20:02;;;;;;;;;;;16.50;62.70;;;;;;5049443;28;19932;-81
2022/04/23 12:22:28;;;;;;;;;;;16.40;63.10;;;;;;5040167;28;19925;-84
2022/04/23 12:24:55;;;;;;;;;;;16.50;64.90;;;;;;5041313;28;19936;-79
2022/04/23 12:27:21;;;;;;;;;;;16.60;63.70;;;;;;5031771;28;19929;-81
2022/04/23 12:40:44;;;;;;;;;;;16.80;60.80;;;;;;5051786;28;19924;-78
2022/04/23 12:43:11;;;;;;;;;;;16.90;61.50;;;;;;5021897;28;19928;-78
2022/04/23 12:45:37;;;;;;;;;;;16.70;61.50;;;;;;5060741;28;19928;-78
2022/04/23 12:48:04;;;;;;;;;;;16.70;61.80;;;;;;5043303;28;19929;-77
2022/04/23 12:50:31;;;;;;;;;;;16.90;60.70;;;;;;5024383;28;19935;-84
2022/04/23 12:52:57;;;;;;;;;;;16.90;62.60;;;;;;5041526;28;20360;-81
2022/04/23 12:55:25;;;;;;;;;;;17.00;61.30;;;;;;5055767;28;20281;-78
2022/04/23 12:57:51;;;;;;;;;;;17.10;59.50;;;;;;5052797;28;19935;-78
2022/04/23 13:00:18;;;;;;;;;;;17.10;59.20;;;;;;5044021;28;19935;-78
2022/04/23 13:02:47;;;;;;;;;;;17.10;58.50;;;;;;5031970;28;19935;-80
2022/04/23 13:05:14;;;;;;;;;;;17.00;59.70;;;;;;5044223;28;19972;-78
2022/04/23 13:10:24;;;;;;;;;;;16.90;56.60;;;;;;5043615;28;19925;-78
2022/04/23 13:12:51;;;;;;;;;;;17.00;59.80;;;;;;5028874;28;19925;-77
2022/04/23 13:15:17;;;;;;;;;;;17.20;58.70;;;;;;5033223;28;19940;-81
2022/04/23 13:17:44;;;;;;;;;;;17.10;56.80;;;;;;5021832;28;19936;-78
2022/04/23 13:20:10;;;;;;;;;;;17.30;55.90;;;;;;5043817;28;19929;-79
2022/04/23 13:22:37;;;;;;;;;;;17.10;56.10;;;;;;5016312;28;19936;-77
2022/04/23 13:25:03;;;;;;;;;;;17.10;56.10;;;;;;5034885;28;20043;-78
2022/04/23 13:27:30;;;;;;;;;;;17.10;60.60;;;;;;5023637;28;19932;-77
2022/04/23 13:29:56;;;;;;;;;;;17.00;56.20;;;;;;5024646;28;20033;-78
2022/04/23 13:32:23;;;;;;;;;;;17.00;55.10;;;;;;5045022;28;20403;-77
2022/04/23 13:34:50;;;;;;;;;;;17.00;55.90;;;;;;5045759;28;19932;-83
2022/04/23 13:37:16;;;;;;;;;;;17.10;58.60;;;;;;5037616;28;20497;-84
2022/04/23 13:39:43;;;;;;;;;;;17.20;58.40;;;;;;5047865;28;19933;-84
2022/04/23 13:42:09;;;;;;;;;;;17.30;55.90;;;;;;5034328;28;19935;-84
2022/04/23 13:44:36;;;;;;;;;;;17.30;56.50;;;;;;5041130;28;19928;-88
2022/04/23 13:47:02;;;;;;;;;;;17.40;54.70;;;;;;5026230;28;20360;-83
2022/04/23 13:49:29;;;;;;;;;;;17.40;54.10;;;;;;5031992;28;19925;-84
2022/04/23 13:51:55;;;;;;;;;;;17.50;56.80;;;;;;5035445;28;20514;-83
2022/04/23 13:54:22;;;;;;;;;;;17.30;55.10;;;;;;5029761;28;20387;-83
2022/04/23 13:56:49;;;;;;;;;;;17.20;56.00;;;;;;5023886;28;19982;-84
2022/04/23 13:59:16;;;;;;;;;;;17.20;56.20;;;;;;5044687;28;20279;-84
2022/04/23 14:10:04;;;;;;;;;;;17.20;55.00;;;;;;5021632;28;19928;-83
2022/04/23 14:10:07;;;;;;;;;;;17.20;56.10;;;;;;5035379;28;19982;-85
2022/04/23 14:12:33;;;;;;;;;;;17.30;56.30;;;;;;5033264;28;19933;-87
2022/04/23 14:15:00;;;;;;;;;;;17.40;55.90;;;;;;5021756;28;19925;-85
2022/04/23 14:17:27;;;;;;;;;;;17.40;56.30;;;;;;5034488;28;19929;-81
2022/04/23 14:19:54;;;;;;;;;;;17.30;53.50;;;;;;5050074;28;19955;-82
2022/04/23 14:22:20;;;;;;;;;;;17.30;53.70;;;;;;5059543;28;19928;-81
2022/04/23 14:24:47;;;;;;;;;;;17.20;54.00;;;;;;5054397;28;19929;-86
2022/04/23 14:27:13;;;;;;;;;;;17.20;55.30;;;;;;5061671;28;19939;-81
2022/04/23 14:29:40;;;;;;;;;;;17.20;55.10;;;;;;5052768;28;20415;-85
2022/04/23 14:32:06;;;;;;;;;;;17.20;52.90;;;;;;5016129;28;20396;-81
2022/04/23 14:34:33;;;;;;;;;;;17.20;54.70;;;;;;5032760;28;20385;-81
2022/04/23 14:37:00;;;;;;;;;;;17.30;56.80;;;;;;5052625;28;19931;-83
2022/04/23 14:39:26;;;;;;;;;;;17.30;54.20;;;;;;5029267;28;19925;-82
2022/04/23 14:41:53;;;;;;;;;;;17.30;55.10;;;;;;5044015;28;19931;-82
2022/04/23 14:44:20;;;;;;;;;;;17.30;54.50;;;;;;5034917;28;19924;-83
2022/04/23 14:46:46;;;;;;;;;;;17.20;53.40;;;;;;5053403;28;19932;-83
2022/04/23 14:49:13;;;;;;;;;;;17.30;55.00;;;;;;5053814;28;19925;-83
2022/04/23 14:54:24;;;;;;;;;;;17.20;55.20;;;;;;5035554;28;19933;-83
2022/04/23 14:56:50;;;;;;;;;;;17.30;54.70;;;;;;5051211;28;19925;-84
2022/04/23 14:59:17;;;;;;;;;;;17.20;54.30;;;;;;5034483;28;19932;-83
2022/04/23 15:01:46;;;;;;;;;;;17.30;54.10;;;;;;5025010;28;19932;-83
2022/04/23 15:04:14;;;;;;;;;;;17.30;55.50;;;;;;5029661;28;19932;-83
2022/04/23 15:06:40;;;;;;;;;;;17.30;55.60;;;;;;5033433;28;19928;-89